createdAt,value
2023-04-18T00:00:25.643Z,85.95
2023-04-18T00:01:25.595Z,85.78
2023-04-18T00:02:25.678Z,85.78
2023-04-18T00:03:25.759Z,85.68
2023-04-18T00:04:25.722Z,85.78
2023-04-18T00:05:25.656Z,85.58
2023-04-18T00:06:25.588Z,85.37
2023-04-18T00:07:25.541Z,85.47
2023-04-18T00:08:25.561Z,85.78
2023-04-18T00:09:25.564Z,85.78
2023-04-18T00:10:25.507Z,85.89
2023-04-18T00:11:25.484Z,85.78
2023-04-18T00:12:25.508Z,85.68
2023-04-18T00:13:25.467Z,85.58
2023-04-18T00:14:25.461Z,85.58
2023-04-18T00:15:25.441Z,85.47
2023-04-18T00:16:25.507Z,85.37
2023-04-18T00:17:25.458Z,85.68
2023-04-18T00:18:25.431Z,85.47
2023-04-18T00:19:25.402Z,85.58
2023-04-18T00:20:25.416Z,85.58
2023-04-18T00:21:25.390Z,85.37
2023-04-18T00:22:25.386Z,85.33
2023-04-18T00:23:25.357Z,85.33
2023-04-18T00:24:25.357Z,85.33
2023-04-18T00:25:25.344Z,84.81
2023-04-18T00:26:25.358Z,84.61
2023-04-18T00:27:25.319Z,84.72
2023-04-18T00:28:25.343Z,84.92
2023-04-18T00:29:25.288Z,84.72
2023-04-18T00:30:25.327Z,84.81
2023-04-18T00:31:25.371Z,85.13
2023-04-18T00:32:25.318Z,84.92
2023-04-18T00:33:25.250Z,84.92
2023-04-18T00:34:25.266Z,84.72
2023-04-18T00:35:25.233Z,84.61
2023-04-18T00:36:25.249Z,85.33
2023-04-18T00:37:25.202Z,85.33
2023-04-18T00:38:25.242Z,85.44
2023-04-18T00:39:25.190Z,84.92
2023-04-18T00:40:25.216Z,84.72
2023-04-18T00:41:25.172Z,84.65
2023-04-18T00:42:25.181Z,84.65
2023-04-18T00:43:25.162Z,84.72
2023-04-18T00:44:25.160Z,84.81
2023-04-18T00:45:25.116Z,84.51
2023-04-18T00:46:25.171Z,84.41
2023-04-18T00:47:25.120Z,84.41
2023-04-18T00:48:25.122Z,84.20
2023-04-18T00:49:25.086Z,84.20
2023-04-18T00:50:25.098Z,84.51
2023-04-18T00:51:25.057Z,84.61
2023-04-18T00:52:25.075Z,83.99
2023-04-18T00:53:25.048Z,83.99
2023-04-18T00:54:25.050Z,83.89
2023-04-18T00:55:25.051Z,83.78
2023-04-18T00:56:25.016Z,83.89
2023-04-18T00:57:24.987Z,83.89
2023-04-18T00:58:25.003Z,83.78
2023-04-18T00:59:24.971Z,83.68
2023-04-18T01:00:24.986Z,83.68
2023-04-18T01:01:24.989Z,83.48
2023-04-18T01:02:25.111Z,83.48
2023-04-18T01:03:24.988Z,83.37
2023-04-18T01:04:25.040Z,83.17
2023-04-18T01:05:24.917Z,83.17
2023-04-18T01:06:24.891Z,82.96
2023-04-18T01:07:24.918Z,83.06
2023-04-18T01:08:24.876Z,83.27
2023-04-18T01:09:24.890Z,82.86
2023-04-18T01:10:24.852Z,82.75
2023-04-18T01:11:24.868Z,82.86
2023-04-18T01:12:24.828Z,83.06
2023-04-18T01:13:24.918Z,82.75
2023-04-18T01:14:24.826Z,82.65
2023-04-18T01:15:24.817Z,82.55
2023-04-18T01:16:24.874Z,82.55
2023-04-18T01:17:24.818Z,82.24
2023-04-18T01:18:24.765Z,82.45
2023-04-18T01:19:24.795Z,82.45
2023-04-18T01:20:24.772Z,82.24
2023-04-18T01:21:24.758Z,81.93
2023-04-18T01:22:24.734Z,82.34
2023-04-18T01:23:24.749Z,81.93
2023-04-18T01:24:24.719Z,81.82
2023-04-18T01:25:24.712Z,82.24
2023-04-18T01:26:24.686Z,82.14
2023-04-18T01:27:24.692Z,82.24
2023-04-18T01:28:24.660Z,81.72
2023-04-18T01:29:24.686Z,81.93
2023-04-18T01:30:24.648Z,81.82
2023-04-18T01:31:24.677Z,82.14
2023-04-18T01:32:24.654Z,82.14
2023-04-18T01:33:24.655Z,82.24
2023-04-18T01:34:24.594Z,82.24
2023-04-18T01:35:24.602Z,82.24
2023-04-18T01:36:24.584Z,81.93
2023-04-18T01:37:24.604Z,81.82
2023-04-18T01:38:24.550Z,81.82
2023-04-18T01:39:24.579Z,81.93
2023-04-18T01:40:24.532Z,81.93
2023-04-18T01:41:24.538Z,81.62
2023-04-18T01:42:24.513Z,81.72
2023-04-18T01:43:24.521Z,81.93
2023-04-18T01:44:23.480Z,82.03
2023-04-18T01:45:24.638Z,81.93
2023-04-18T01:46:24.557Z,81.62
2023-04-18T01:47:24.543Z,82.03
2023-04-18T01:48:24.467Z,82.03
2023-04-18T01:49:24.477Z,81.62
2023-04-18T01:50:24.426Z,82.24
2023-04-18T01:51:24.421Z,82.55
2023-04-18T01:52:24.398Z,82.14
2023-04-18T01:53:24.412Z,81.62
2023-04-18T01:54:24.411Z,81.72
2023-04-18T01:55:24.447Z,81.76
2023-04-18T01:56:24.409Z,82.48
2023-04-18T01:57:24.369Z,82.59
2023-04-18T01:58:24.335Z,81.86
2023-04-18T01:59:24.433Z,82.17
2023-04-18T02:00:24.386Z,82.07
2023-04-18T02:01:24.408Z,82.07
2023-04-18T02:02:24.414Z,82.07
2023-04-18T02:03:24.529Z,82.28
2023-04-18T02:04:24.290Z,82.38
2023-04-18T02:05:24.311Z,82.48
2023-04-18T02:06:24.254Z,82.48
2023-04-18T02:07:24.257Z,82.59
2023-04-18T02:08:24.229Z,82.28
2023-04-18T02:09:24.257Z,82.59
2023-04-18T02:10:24.209Z,82.59
2023-04-18T02:11:24.219Z,83.00
2023-04-18T02:12:24.193Z,83.00
2023-04-18T02:13:24.189Z,83.00
2023-04-18T02:14:24.164Z,82.89
2023-04-18T02:15:24.189Z,82.89
2023-04-18T02:16:24.187Z,82.69
2023-04-18T02:17:24.200Z,83.00
2023-04-18T02:18:24.122Z,82.79
2023-04-18T02:19:24.154Z,83.25
2023-04-18T02:20:24.134Z,83.14
2023-04-18T02:21:24.105Z,82.93
2023-04-18T02:22:24.100Z,83.04
2023-04-18T02:23:24.086Z,83.14
2023-04-18T02:24:24.054Z,83.31
2023-04-18T02:25:24.102Z,83.62
2023-04-18T02:26:24.053Z,83.20
2023-04-18T02:27:24.039Z,83.34
2023-04-18T02:28:24.012Z,83.20
2023-04-18T02:29:24.044Z,83.55
2023-04-18T02:30:24.013Z,83.76
2023-04-18T02:31:24.039Z,83.41
2023-04-18T02:32:24.010Z,83.51
2023-04-18T02:33:23.994Z,83.83
2023-04-18T02:34:23.960Z,83.83
2023-04-18T02:35:23.980Z,83.72
2023-04-18T02:36:23.960Z,83.83
2023-04-18T02:37:23.952Z,83.41
2023-04-18T02:38:23.903Z,83.51
2023-04-18T02:39:23.912Z,83.31
2023-04-18T02:40:23.886Z,83.31
2023-04-18T02:41:23.913Z,83.72
2023-04-18T02:42:23.864Z,83.83
2023-04-18T02:43:23.869Z,83.62
2023-04-18T02:44:23.838Z,83.31
2023-04-18T02:45:23.859Z,83.31
2023-04-18T02:46:23.903Z,83.31
2023-04-18T02:47:23.841Z,83.51
2023-04-18T02:48:23.848Z,83.51
2023-04-18T02:49:23.819Z,83.41
2023-04-18T02:50:23.787Z,83.41
2023-04-18T02:51:23.786Z,83.20
2023-04-18T02:52:23.763Z,83.17
2023-04-18T02:53:23.763Z,82.96
2023-04-18T02:54:23.745Z,82.86
2023-04-18T02:55:23.746Z,82.75
2023-04-18T02:56:23.735Z,82.65
2023-04-18T02:57:23.758Z,82.75
2023-04-18T02:58:23.688Z,82.24
2023-04-18T02:59:23.707Z,82.34
2023-04-18T03:00:23.679Z,82.45
2023-04-18T03:01:23.724Z,82.45
2023-04-18T03:02:23.700Z,82.24
2023-04-18T03:03:23.694Z,82.55
2023-04-18T03:04:23.659Z,83.27
2023-04-18T03:05:23.653Z,83.17
2023-04-18T03:06:23.601Z,83.27
2023-04-18T03:07:23.634Z,83.17
2023-04-18T03:08:23.596Z,83.17
2023-04-18T03:09:23.622Z,83.17
2023-04-18T03:10:23.567Z,83.68
2023-04-18T03:11:23.584Z,84.09
2023-04-18T03:12:23.553Z,83.99
2023-04-18T03:13:23.567Z,83.89
2023-04-18T03:14:23.536Z,83.99
2023-04-18T03:15:23.524Z,83.99
2023-04-18T03:16:23.570Z,83.89
2023-04-18T03:17:23.530Z,83.37
2023-04-18T03:18:23.494Z,83.89
2023-04-18T03:19:23.476Z,83.78
2023-04-18T03:20:23.475Z,83.89
2023-04-18T03:21:23.470Z,83.89
2023-04-18T03:22:23.436Z,83.99
2023-04-18T03:23:23.436Z,83.99
2023-04-18T03:24:23.437Z,83.48
2023-04-18T03:25:23.431Z,83.72
2023-04-18T03:26:23.392Z,83.72
2023-04-18T03:27:23.414Z,83.83
2023-04-18T03:28:23.366Z,84.03
2023-04-18T03:29:23.405Z,83.99
2023-04-18T03:30:23.361Z,83.89
2023-04-18T03:31:23.405Z,83.89
2023-04-18T03:32:23.335Z,83.89
2023-04-18T03:33:23.328Z,84.72
2023-04-18T03:34:23.294Z,84.30
2023-04-18T03:35:23.332Z,84.20
2023-04-18T03:36:23.286Z,84.09
2023-04-18T03:37:23.319Z,84.51
2023-04-18T03:38:23.262Z,84.51
2023-04-18T03:39:23.309Z,84.41
2023-04-18T03:40:23.258Z,84.30
2023-04-18T03:41:23.256Z,84.30
2023-04-18T03:42:23.227Z,84.30
2023-04-18T03:43:23.245Z,84.30
2023-04-18T03:44:23.242Z,84.51
2023-04-18T03:45:23.215Z,84.41
2023-04-18T03:46:23.283Z,84.51
2023-04-18T03:47:23.269Z,84.41
2023-04-18T03:48:23.163Z,84.41
2023-04-18T03:49:23.171Z,84.20
2023-04-18T03:50:23.131Z,84.09
2023-04-18T03:51:23.150Z,83.89
2023-04-18T03:52:23.129Z,83.78
2023-04-18T03:53:23.113Z,83.78
2023-04-18T03:54:23.099Z,84.09
2023-04-18T03:55:23.099Z,84.20
2023-04-18T03:56:23.076Z,84.61
2023-04-18T03:57:23.061Z,84.36
2023-04-18T03:59:23.031Z,84.47
2023-04-18T04:00:22.973Z,84.16
2023-04-18T04:01:23.049Z,84.06
2023-04-18T04:02:23.070Z,84.27
2023-04-18T04:03:23.110Z,84.36
2023-04-18T04:04:22.988Z,84.36
2023-04-18T04:05:22.999Z,84.36
2023-04-18T04:06:22.962Z,84.57
2023-04-18T04:07:29.446Z,84.57
2023-04-18T04:08:22.902Z,84.67
2023-04-18T04:09:22.898Z,84.78
2023-04-18T04:10:22.881Z,84.57
2023-04-18T04:11:22.878Z,84.57
2023-04-18T04:12:22.841Z,84.57
2023-04-18T04:13:22.856Z,84.47
2023-04-18T04:14:22.884Z,84.57
2023-04-18T04:15:22.832Z,84.47
2023-04-18T04:16:22.863Z,84.33
2023-04-18T04:17:22.841Z,84.22
2023-04-18T04:18:22.779Z,84.12
2023-04-18T04:19:22.793Z,83.91
2023-04-18T04:20:22.756Z,83.71
2023-04-18T04:21:22.767Z,83.61
2023-04-18T04:22:22.737Z,83.71
2023-04-18T04:23:22.746Z,83.81
2023-04-18T04:24:22.739Z,84.01
2023-04-18T04:25:22.733Z,84.01
2023-04-18T04:26:22.705Z,84.01
2023-04-18T04:27:22.713Z,84.33
2023-04-18T04:28:22.688Z,84.47
2023-04-18T04:29:22.690Z,84.47
2023-04-18T04:30:22.658Z,84.67
2023-04-18T04:31:22.713Z,84.78
2023-04-18T04:32:22.647Z,84.99
2023-04-18T04:33:22.633Z,85.19
2023-04-18T04:34:22.600Z,85.50
2023-04-18T04:35:22.664Z,85.60
2023-04-18T04:36:22.618Z,85.60
2023-04-18T04:37:22.606Z,85.30
2023-04-18T04:38:22.557Z,84.94
2023-04-18T04:39:22.580Z,84.94
2023-04-18T04:40:22.533Z,84.84
2023-04-18T04:41:22.558Z,84.94
2023-04-18T04:42:22.526Z,85.05
2023-04-18T04:43:22.522Z,85.57
2023-04-18T04:44:22.528Z,85.36
2023-04-18T04:45:22.530Z,85.36
2023-04-18T04:46:22.565Z,85.67
2023-04-18T04:47:22.487Z,85.87
2023-04-18T04:48:22.495Z,85.57
2023-04-18T04:49:22.474Z,85.46
2023-04-18T04:50:22.424Z,85.77
2023-04-18T04:51:22.463Z,85.67
2023-04-18T04:52:22.412Z,85.67
2023-04-18T04:53:22.408Z,85.67
2023-04-18T04:54:22.386Z,85.87
2023-04-18T04:55:22.391Z,85.87
2023-04-18T04:56:22.375Z,85.77
2023-04-18T04:57:22.402Z,85.87
2023-04-18T04:58:22.363Z,86.80
2023-04-18T04:59:22.368Z,86.45
2023-04-18T05:00:22.319Z,86.29
2023-04-18T05:01:22.361Z,86.15
2023-04-18T05:02:22.398Z,86.04
2023-04-18T05:03:22.394Z,86.04
2023-04-18T05:04:22.399Z,85.73
2023-04-18T05:05:22.287Z,85.73
2023-04-18T05:06:22.256Z,85.94
2023-04-18T05:07:22.296Z,85.52
2023-04-18T05:08:22.239Z,85.42
2023-04-18T05:09:22.268Z,85.31
2023-04-18T05:10:22.229Z,85.42
2023-04-18T05:11:22.260Z,85.63
2023-04-18T05:12:22.189Z,85.63
2023-04-18T05:13:22.232Z,85.52
2023-04-18T05:14:22.168Z,85.38
2023-04-18T05:15:22.190Z,85.38
2023-04-18T05:16:22.224Z,85.38
2023-04-18T05:17:22.214Z,85.28
2023-04-18T05:18:22.140Z,85.17
2023-04-18T05:19:22.120Z,85.17
2023-04-18T05:20:22.133Z,85.07
2023-04-18T05:21:22.097Z,85.07
2023-04-18T05:22:22.117Z,85.03
2023-04-18T05:23:22.081Z,84.93
2023-04-18T05:24:22.109Z,84.83
2023-04-18T05:25:22.055Z,84.93
2023-04-18T05:26:22.071Z,84.93
2023-04-18T05:27:22.047Z,84.83
2023-04-18T05:28:22.034Z,84.83
2023-04-18T05:29:22.009Z,84.72
2023-04-18T05:30:22.021Z,84.72
2023-04-18T05:31:22.028Z,84.72
2023-04-18T05:32:22.011Z,84.93
2023-04-18T05:33:21.966Z,84.83
2023-04-18T05:34:21.997Z,84.93
2023-04-18T05:35:21.952Z,84.83
2023-04-18T05:36:21.966Z,84.93
2023-04-18T05:37:21.935Z,84.93
2023-04-18T05:38:21.944Z,85.03
2023-04-18T05:39:21.934Z,85.03
2023-04-18T05:40:21.926Z,85.34
2023-04-18T05:41:21.881Z,85.14
2023-04-18T05:42:21.889Z,85.20
2023-04-18T05:43:21.874Z,84.99
2023-04-18T05:44:22.061Z,84.99
2023-04-18T05:45:21.839Z,85.20
2023-04-18T05:46:21.853Z,84.69
2023-04-18T05:47:21.859Z,84.79
2023-04-18T05:48:21.841Z,84.79
2023-04-18T05:49:21.811Z,84.99
2023-04-18T05:50:21.822Z,84.99
2023-04-18T05:51:21.780Z,84.69
2023-04-18T05:52:21.794Z,84.89
2023-04-18T05:53:21.753Z,85.10
2023-04-18T05:54:21.783Z,85.20
2023-04-18T05:55:21.732Z,84.69
2023-04-18T05:56:21.739Z,84.85
2023-04-18T05:57:21.714Z,84.95
2023-04-18T05:58:21.719Z,84.64
2023-04-18T05:59:21.688Z,84.64
2023-04-18T06:00:21.718Z,84.85
2023-04-18T06:01:21.665Z,85.06
2023-04-18T06:02:21.758Z,85.16
2023-04-18T06:03:21.752Z,84.64
2023-04-18T06:04:21.890Z,84.64
2023-04-18T06:05:21.784Z,84.85
2023-04-18T06:06:21.645Z,84.85
2023-04-18T06:07:21.618Z,84.95
2023-04-18T06:08:21.628Z,84.95
2023-04-18T06:09:21.580Z,84.85
2023-04-18T06:10:21.616Z,84.34
2023-04-18T06:11:21.585Z,84.03
2023-04-18T06:12:21.559Z,84.30
2023-04-18T06:13:21.538Z,84.23
2023-04-18T06:14:21.549Z,83.99
2023-04-18T06:15:21.514Z,83.68
2023-04-18T06:16:21.576Z,84.09
2023-04-18T06:17:21.501Z,84.09
2023-04-18T06:18:21.530Z,84.30
2023-04-18T06:19:21.468Z,83.89
2023-04-18T06:20:21.486Z,84.09
2023-04-18T06:21:21.461Z,83.68
2023-04-18T06:22:21.458Z,83.89
2023-04-18T06:23:21.441Z,83.64
2023-04-18T06:24:21.450Z,83.95
2023-04-18T06:25:21.410Z,83.75
2023-04-18T06:26:21.415Z,83.33
2023-04-18T06:27:30.539Z,83.23
2023-04-18T06:28:21.399Z,83.09
2023-04-18T06:29:21.368Z,82.89
2023-04-18T06:30:21.384Z,83.19
2023-04-18T06:31:21.363Z,83.29
2023-04-18T06:32:21.397Z,82.89
2023-04-18T06:33:21.333Z,82.99
2023-04-18T06:34:21.341Z,82.54
2023-04-18T06:35:21.303Z,82.43
2023-04-18T06:36:21.306Z,82.33
2023-04-18T06:37:21.277Z,82.75
2023-04-18T06:38:21.283Z,82.23
2023-04-18T06:39:21.254Z,82.09
2023-04-18T06:40:21.290Z,82.09
2023-04-18T06:41:21.230Z,81.37
2023-04-18T06:42:22.558Z,80.76
2023-04-18T06:43:21.214Z,80.55
2023-04-18T06:44:21.218Z,80.45
2023-04-18T06:45:21.190Z,80.00
2023-04-18T06:46:21.269Z,79.90
2023-04-18T06:47:21.206Z,79.90
2023-04-18T06:48:21.207Z,79.90
2023-04-18T06:49:26.102Z,79.80
2023-04-18T06:50:21.175Z,79.66
2023-04-18T06:51:21.126Z,80.07
2023-04-18T06:52:21.144Z,79.00
2023-04-18T06:53:21.138Z,77.98
2023-04-18T06:54:21.117Z,77.98
2023-04-18T06:55:21.088Z,78.19
2023-04-18T06:56:21.145Z,77.57
2023-04-18T06:57:21.059Z,77.87
2023-04-18T06:58:21.063Z,76.34
2023-04-18T06:59:21.047Z,77.16
2023-04-18T07:00:21.062Z,77.33
2023-04-18T07:01:21.105Z,76.20
2023-04-18T07:02:21.134Z,76.10
2023-04-18T07:03:21.095Z,76.24
2023-04-18T07:04:21.221Z,76.34
2023-04-18T07:05:20.972Z,76.20
2023-04-18T07:06:20.996Z,76.20
2023-04-18T07:07:20.953Z,76.40
2023-04-18T07:08:20.975Z,76.51
2023-04-18T07:09:20.931Z,76.10
2023-04-18T07:10:20.971Z,76.06
2023-04-18T07:11:20.904Z,75.76
2023-04-18T07:12:20.936Z,76.27
2023-04-18T07:13:20.885Z,75.45
2023-04-18T07:14:20.917Z,75.04
2023-04-18T07:15:20.864Z,75.35
2023-04-18T07:16:20.974Z,75.14
2023-04-18T07:17:20.861Z,74.80
2023-04-18T07:18:34.209Z,74.60
2023-04-18T07:19:20.841Z,74.19
2023-04-18T07:20:20.836Z,73.78
2023-04-18T07:21:20.829Z,74.69
2023-04-18T07:22:20.816Z,74.69
2023-04-18T07:23:20.774Z,74.56
2023-04-18T07:24:20.798Z,74.05
2023-04-18T07:25:20.751Z,74.46
2023-04-18T07:26:20.779Z,73.91
2023-04-18T07:27:20.748Z,73.81
2023-04-18T07:28:20.737Z,73.20
2023-04-18T07:29:20.752Z,71.25
2023-04-18T07:30:20.760Z,71.87
2023-04-18T07:31:20.747Z,72.89
2023-04-18T07:32:20.734Z,72.69
2023-04-18T07:33:20.684Z,71.77
2023-04-18T07:34:20.688Z,72.86
2023-04-18T07:35:20.646Z,72.24
2023-04-18T07:36:20.662Z,71.42
2023-04-18T07:37:20.648Z,71.66
2023-04-18T07:38:20.685Z,71.77
2023-04-18T07:39:20.609Z,72.07
2023-04-18T07:40:20.620Z,72.04
2023-04-18T07:41:20.622Z,72.34
2023-04-18T07:42:20.602Z,71.12
2023-04-18T07:43:21.037Z,71.33
2023-04-18T07:44:20.614Z,71.19
2023-04-18T07:45:20.538Z,71.63
2023-04-18T07:46:20.664Z,70.88
2023-04-18T07:47:22.403Z,70.71
2023-04-18T07:48:20.603Z,70.61
2023-04-18T07:49:20.500Z,70.92
2023-04-18T07:50:20.513Z,70.30
2023-04-18T07:51:20.487Z,70.81
2023-04-18T07:52:20.482Z,71.01
2023-04-18T07:53:20.461Z,70.71
2023-04-18T07:54:20.529Z,71.22
2023-04-18T07:55:20.439Z,71.83
2023-04-18T07:56:20.445Z,71.73
2023-04-18T07:57:20.420Z,71.39
2023-04-18T07:58:20.425Z,71.70
2023-04-18T07:59:20.396Z,71.59
2023-04-18T08:00:20.421Z,71.39
2023-04-18T08:01:20.367Z,70.37
2023-04-18T08:02:20.473Z,70.88
2023-04-18T08:03:20.595Z,70.27
2023-04-18T08:04:20.508Z,69.65
2023-04-18T08:05:20.394Z,69.86
2023-04-18T08:06:20.328Z,70.68
2023-04-18T08:07:20.300Z,70.88
2023-04-18T08:08:20.331Z,70.75
2023-04-18T08:09:20.279Z,70.64
2023-04-18T08:10:22.451Z,70.44
2023-04-18T08:11:20.261Z,70.51
2023-04-18T08:12:20.277Z,69.69
2023-04-18T08:13:20.229Z,69.49
2023-04-18T08:14:20.250Z,68.98
2023-04-18T08:15:20.206Z,69.38
2023-04-18T08:16:20.317Z,68.44
2023-04-18T08:17:20.299Z,67.32
2023-04-18T08:18:20.194Z,67.93
2023-04-18T08:19:20.179Z,68.40
2023-04-18T08:20:20.202Z,68.10
2023-04-18T08:21:20.186Z,67.90
2023-04-18T08:22:20.182Z,68.30
2023-04-18T08:23:20.123Z,67.99
2023-04-18T08:24:20.150Z,67.59
2023-04-18T08:25:20.110Z,67.59
2023-04-18T08:26:20.197Z,67.86
2023-04-18T08:27:20.077Z,67.08
2023-04-18T08:28:20.099Z,67.49
2023-04-18T08:29:20.061Z,67.69
2023-04-18T08:30:20.073Z,67.72
2023-04-18T08:31:20.052Z,68.23
2023-04-18T08:32:20.129Z,68.84
2023-04-18T08:33:20.009Z,68.03
2023-04-18T08:34:20.022Z,68.71
2023-04-18T08:35:19.996Z,67.90
2023-04-18T08:36:20.025Z,67.79
2023-04-18T08:37:19.969Z,67.76
2023-04-18T08:38:19.975Z,67.96
2023-04-18T08:39:19.946Z,68.44
2023-04-18T08:40:19.966Z,66.88
2023-04-18T08:41:19.926Z,64.81
2023-04-18T08:42:19.933Z,64.51
2023-04-18T08:43:19.897Z,63.84
2023-04-18T08:44:19.927Z,63.48
2023-04-18T08:45:19.881Z,62.74
2023-04-18T08:46:19.950Z,61.79
2023-04-18T08:47:19.879Z,61.23
2023-04-18T08:48:19.870Z,59.91
2023-04-18T08:49:19.837Z,59.41
2023-04-18T08:50:19.865Z,59.07
2023-04-18T08:51:19.897Z,58.47
2023-04-18T08:52:19.856Z,57.96
2023-04-18T08:53:19.810Z,58.18
2023-04-18T08:54:19.811Z,58.29
2023-04-18T08:55:19.766Z,59.33
2023-04-18T08:56:19.785Z,59.86
2023-04-18T08:57:19.775Z,60.81
2023-04-18T08:58:19.774Z,60.74
2023-04-18T08:59:19.723Z,62.39
2023-04-18T09:00:19.731Z,62.01
2023-04-18T09:01:19.742Z,63.13
2023-04-18T09:02:19.739Z,63.16
2023-04-18T09:03:19.689Z,63.77
2023-04-18T09:04:19.739Z,64.38
2023-04-18T09:05:19.818Z,64.89
2023-04-18T09:06:19.685Z,64.48
2023-04-18T09:07:19.633Z,63.87
2023-04-18T09:08:19.640Z,64.07
2023-04-18T09:09:19.618Z,64.48
2023-04-18T09:10:19.614Z,64.20
2023-04-18T09:11:19.590Z,64.81
2023-04-18T09:12:19.595Z,64.69
2023-04-18T09:13:19.591Z,66.11
2023-04-18T09:14:19.589Z,64.99
2023-04-18T09:15:19.556Z,64.31
2023-04-18T09:16:19.630Z,65.83
2023-04-18T09:17:19.692Z,65.94
2023-04-18T09:18:19.544Z,65.73
2023-04-18T09:19:19.515Z,65.46
2023-04-18T09:20:19.535Z,65.77
2023-04-18T09:21:19.497Z,66.58
2023-04-18T09:22:19.492Z,66.58
2023-04-18T09:23:19.476Z,66.58
2023-04-18T09:24:19.497Z,65.33
2023-04-18T09:25:19.445Z,65.46
2023-04-18T09:26:19.445Z,65.77
2023-04-18T09:27:19.422Z,66.38
2023-04-18T09:28:19.429Z,65.25
2023-04-18T09:29:19.400Z,64.84
2023-04-18T09:30:19.440Z,64.98
2023-04-18T09:31:19.400Z,65.49
2023-04-18T09:32:19.374Z,64.98
2023-04-18T09:33:19.385Z,64.57
2023-04-18T09:34:19.346Z,65.28
2023-04-18T09:35:19.378Z,64.75
2023-04-18T09:36:19.439Z,65.25
2023-04-18T09:37:19.330Z,65.12
2023-04-18T09:38:19.303Z,66.00
2023-04-18T09:39:19.309Z,65.09
2023-04-18T09:40:19.294Z,64.45
2023-04-18T09:41:21.564Z,63.74
2023-04-18T09:42:19.274Z,63.51
2023-04-18T09:43:19.295Z,63.71
2023-04-18T09:44:19.333Z,62.70
2023-04-18T09:45:19.252Z,61.55
2023-04-18T09:46:19.263Z,62.08
2023-04-18T09:47:19.253Z,62.79
2023-04-18T09:48:19.194Z,62.79
2023-04-18T09:49:19.228Z,62.59
2023-04-18T09:50:19.181Z,61.68
2023-04-18T09:51:19.199Z,61.57
2023-04-18T09:52:19.198Z,62.49
2023-04-18T09:53:20.783Z,61.91
2023-04-18T09:54:19.137Z,62.72
2023-04-18T09:55:19.160Z,62.65
2023-04-18T09:56:19.130Z,64.07
2023-04-18T09:57:19.122Z,63.97
2023-04-18T09:58:19.095Z,64.18
2023-04-18T09:59:21.129Z,63.97
2023-04-18T10:00:19.075Z,63.97
2023-04-18T10:01:19.113Z,63.26
2023-04-18T10:02:19.094Z,63.46
2023-04-18T10:03:19.171Z,63.16
2023-04-18T10:04:19.143Z,62.85
2023-04-18T10:05:20.944Z,62.45
2023-04-18T10:06:19.002Z,62.45
2023-04-18T10:07:19.029Z,62.21
2023-04-18T10:08:18.991Z,62.93
2023-04-18T10:09:18.981Z,62.72
2023-04-18T10:10:18.962Z,62.82
2023-04-18T10:11:20.226Z,63.33
2023-04-18T10:12:18.942Z,62.93
2023-04-18T10:13:18.966Z,63.84
2023-04-18T10:14:19.057Z,63.13
2023-04-18T10:15:18.934Z,62.72
2023-04-18T10:16:18.899Z,63.33
2023-04-18T10:17:18.911Z,62.82
2023-04-18T10:18:18.947Z,63.13
2023-04-18T10:19:18.903Z,63.74
2023-04-18T10:20:18.847Z,63.64
2023-04-18T10:21:18.855Z,63.43
2023-04-18T10:22:18.830Z,63.33
2023-04-18T10:23:18.834Z,63.23
2023-04-18T10:24:18.812Z,63.77
2023-04-18T10:25:18.829Z,64.48
2023-04-18T10:26:18.806Z,64.79
2023-04-18T10:27:18.802Z,64.99
2023-04-18T10:28:18.761Z,65.09
2023-04-18T10:29:18.829Z,64.38
2023-04-18T10:30:18.778Z,64.31
2023-04-18T10:31:18.794Z,64.61
2023-04-18T10:32:18.724Z,65.56
2023-04-18T10:33:29.416Z,65.66
2023-04-18T10:34:18.801Z,66.68
2023-04-18T10:35:18.715Z,66.27
2023-04-18T10:36:18.676Z,66.88
2023-04-18T10:37:18.706Z,66.17
2023-04-18T10:38:18.653Z,65.66
2023-04-18T10:39:18.677Z,65.86
2023-04-18T10:40:18.639Z,66.27
2023-04-18T10:41:18.677Z,66.38
2023-04-18T10:42:18.612Z,66.47
2023-04-18T10:43:18.664Z,65.63
2023-04-18T10:44:18.646Z,65.43
2023-04-18T10:45:18.617Z,65.63
2023-04-18T10:46:31.181Z,65.60
2023-04-18T10:47:18.631Z,65.19
2023-04-18T10:48:18.610Z,64.38
2023-04-18T10:49:18.676Z,64.79
2023-04-18T10:50:18.529Z,65.19
2023-04-18T10:51:18.581Z,65.39
2023-04-18T10:52:18.504Z,65.19
2023-04-18T10:53:18.513Z,65.19
2023-04-18T10:54:18.486Z,65.02
2023-04-18T10:55:18.553Z,65.43
2023-04-18T10:56:18.488Z,65.73
2023-04-18T10:57:18.473Z,66.14
2023-04-18T10:58:18.448Z,65.83
2023-04-18T10:59:18.453Z,65.63
2023-04-18T11:00:18.439Z,65.63
2023-04-18T11:01:18.478Z,66.04
2023-04-18T11:02:18.432Z,66.24
2023-04-18T11:03:18.485Z,66.55
2023-04-18T11:04:18.770Z,66.14
2023-04-18T11:05:18.393Z,66.44
2023-04-18T11:06:18.349Z,67.05
2023-04-18T11:07:18.409Z,67.05
2023-04-18T11:08:18.346Z,67.26
2023-04-18T11:09:18.335Z,66.44
2023-04-18T11:10:18.309Z,66.55
2023-04-18T11:11:18.313Z,66.65
2023-04-18T11:12:18.287Z,67.26
2023-04-18T11:13:18.305Z,67.26
2023-04-18T11:14:18.403Z,66.82
2023-04-18T11:15:18.282Z,66.21
2023-04-18T11:16:18.255Z,66.31
2023-04-18T11:17:18.248Z,65.60
2023-04-18T11:18:18.223Z,65.47
2023-04-18T11:19:18.234Z,65.16
2023-04-18T11:20:18.208Z,65.47
2023-04-18T11:21:18.205Z,65.64
2023-04-18T11:22:18.180Z,65.33
2023-04-18T11:23:18.201Z,64.59
2023-04-18T11:24:18.156Z,63.98
2023-04-18T11:25:18.195Z,64.56
2023-04-18T11:26:18.181Z,64.26
2023-04-18T11:27:18.132Z,63.95
2023-04-18T11:28:18.112Z,63.65
2023-04-18T11:29:18.131Z,63.72
2023-04-18T11:30:18.288Z,62.23
2023-04-18T11:31:18.107Z,62.94
2023-04-18T11:32:18.096Z,63.65
2023-04-18T11:33:18.121Z,63.28
2023-04-18T11:34:18.050Z,63.68
2023-04-18T11:35:18.158Z,63.28
2023-04-18T11:36:18.042Z,62.97
2023-04-18T11:37:18.049Z,62.97
2023-04-18T11:38:18.012Z,62.59
2023-04-18T11:39:18.008Z,63.88
2023-04-18T11:40:18.090Z,63.98
2023-04-18T11:41:18.000Z,64.70
2023-04-18T11:42:17.954Z,64.62
2023-04-18T11:43:17.962Z,65.33
2023-04-18T11:44:17.936Z,65.74
2023-04-18T11:45:18.070Z,65.23
2023-04-18T11:46:17.978Z,63.91
2023-04-18T11:47:17.922Z,63.91
2023-04-18T11:48:17.903Z,64.01
2023-04-18T11:49:17.914Z,64.45
2023-04-18T11:50:17.877Z,64.55
2023-04-18T11:51:17.886Z,64.86
2023-04-18T11:52:17.850Z,65.47
2023-04-18T11:53:17.873Z,65.06
2023-04-18T11:54:17.837Z,64.96
2023-04-18T11:55:17.982Z,64.45
2023-04-18T11:56:17.817Z,64.55
2023-04-18T11:57:17.811Z,64.55
2023-04-18T11:58:17.791Z,65.47
2023-04-18T11:59:17.795Z,64.86
2023-04-18T12:00:17.767Z,65.57
2023-04-18T12:01:17.795Z,66.15
2023-04-18T12:02:17.884Z,65.74
2023-04-18T12:03:17.960Z,65.64
2023-04-18T12:04:18.174Z,63.71
2023-04-18T12:05:17.964Z,63.30
2023-04-18T12:06:17.783Z,63.60
2023-04-18T12:07:17.723Z,64.09
2023-04-18T12:08:17.689Z,63.07
2023-04-18T12:09:17.739Z,62.97
2023-04-18T12:10:17.654Z,63.00
2023-04-18T12:11:17.686Z,63.71
2023-04-18T12:12:17.643Z,63.51
2023-04-18T12:13:17.654Z,64.12
2023-04-18T12:14:17.626Z,64.73
2023-04-18T12:15:17.648Z,64.12
2023-04-18T12:16:17.689Z,64.62
2023-04-18T12:17:17.641Z,64.32
2023-04-18T12:18:17.586Z,64.12
2023-04-18T12:19:17.596Z,64.42
2023-04-18T12:20:17.559Z,64.52
2023-04-18T12:21:17.572Z,64.62
2023-04-18T12:22:17.529Z,64.59
2023-04-18T12:23:17.563Z,63.58
2023-04-18T12:24:17.575Z,62.66
2023-04-18T12:25:17.525Z,62.87
2023-04-18T12:26:17.494Z,62.94
2023-04-18T12:27:17.519Z,63.65
2023-04-18T12:28:17.496Z,63.04
2023-04-18T12:29:17.486Z,61.08
2023-04-18T12:30:17.457Z,60.24
2023-04-18T12:31:17.461Z,60.14
2023-04-18T12:32:17.419Z,60.21
2023-04-18T12:33:17.445Z,59.41
2023-04-18T12:34:18.381Z,59.10
2023-04-18T12:35:17.432Z,59.41
2023-04-18T12:36:17.403Z,59.99
2023-04-18T12:37:17.384Z,58.94
2023-04-18T12:38:17.351Z,58.23
2023-04-18T12:39:17.377Z,58.13
2023-04-18T12:40:17.324Z,58.64
2023-04-18T12:41:17.362Z,58.51
2023-04-18T12:42:17.330Z,58.71
2023-04-18T12:43:17.335Z,57.60
2023-04-18T12:44:17.297Z,57.20
2023-04-18T12:45:17.303Z,57.50
2023-04-18T12:46:17.373Z,58.61
2023-04-18T12:47:17.306Z,57.90
2023-04-18T12:48:17.295Z,57.32
2023-04-18T12:49:17.271Z,58.34
2023-04-18T12:50:17.213Z,58.36
2023-04-18T12:51:17.261Z,59.30
2023-04-18T12:52:17.219Z,59.41
2023-04-18T12:53:17.234Z,59.91